Time;durP1;ratioP1;P1;durP2;ratioP2;P2;SDS_P1;SDS_P2;PMS_P1;PMS_P2;Temp;Humidity;BMP_temperature;BMP_pressure;BME280_temperature;BME280_humidity;BME280_pressure;Samples;Min_cycle;Max_cycle;Signal;HPM_P1;HPM_P2
2022/01/19 00:01:14;;;;;;;67.75;33.70;;;5.50;99.90;;;;;;5010613;28;20319;-76
2022/01/19 00:03:40;;;;;;;69.47;32.03;;;5.50;99.90;;;;;;5010178;28;20481;-76
2022/01/19 00:06:05;;;;;;;68.15;31.95;;;5.50;99.90;;;;;;5008339;28;20052;-76
2022/01/19 00:08:31;;;;;;;71.78;33.85;;;5.60;99.90;;;;;;5010998;28;20104;-76
2022/01/19 00:10:57;;;;;;;66.50;32.55;;;5.50;99.90;;;;;;5019210;28;20420;-76
2022/01/19 00:13:23;;;;;;;62.70;31.80;;;5.60;99.90;;;;;;5009433;28;20038;-76
2022/01/19 00:15:49;;;;;;;67.30;32.85;;;5.60;99.90;;;;;;5010928;28;20084;-76
2022/01/19 00:18:18;;;;;;;69.85;32.90;;;5.60;99.90;;;;;;5008369;28;20505;-76
2022/01/19 00:20:45;;;;;;;67.97;32.60;;;5.60;99.90;;;;;;5009600;28;20112;-76
2022/01/19 00:23:11;;;;;;;72.70;32.42;;;5.60;99.90;;;;;;5010238;28;21379;-76
2022/01/19 00:25:37;;;;;;;68.68;32.15;;;5.60;99.90;;;;;;5008196;28;20580;-76
2022/01/19 00:28:03;;;;;;;75.75;33.63;;;5.60;99.90;;;;;;5010200;28;20045;-76
2022/01/19 00:30:29;;;;;;;62.92;32.45;;;5.60;99.90;;;;;;5008822;28;20401;-76
2022/01/19 00:32:55;;;;;;;61.85;32.00;;;5.60;99.90;;;;;;4997282;28;20046;-76
2022/01/19 00:35:21;;;;;;;69.68;31.95;;;5.60;99.90;;;;;;5009307;28;20595;-76
2022/01/19 00:37:47;;;;;;;70.97;34.42;;;5.60;99.90;;;;;;5009037;28;20322;-76
2022/01/19 00:40:14;;;;;;;65.47;32.67;;;5.60;99.90;;;;;;5002812;28;20042;-76
2022/01/19 00:42:41;;;;;;;68.63;33.58;;;5.60;99.90;;;;;;5008678;28;20061;-76
2022/01/19 00:45:07;;;;;;;65.68;31.98;;;5.60;99.90;;;;;;5009450;28;20045;-76
2022/01/19 00:47:33;;;;;;;66.00;30.33;;;5.60;99.90;;;;;;5008292;28;20061;-76
2022/01/19 00:49:58;;;;;;;58.00;29.58;;;5.60;99.90;;;;;;5008270;28;20048;-76
2022/01/19 00:52:24;;;;;;;56.40;29.08;;;5.60;99.90;;;;;;5009703;28;20057;-76
2022/01/19 00:54:50;;;;;;;64.22;29.50;;;5.60;99.90;;;;;;5008010;28;20034;-76
2022/01/19 00:57:15;;;;;;;62.83;30.00;;;5.60;99.90;;;;;;5006490;28;20681;-76
2022/01/19 00:59:41;;;;;;;62.65;29.42;;;5.60;99.90;;;;;;5008232;28;20042;-77
2022/01/19 01:02:07;;;;;;;58.67;29.13;;;5.60;99.90;;;;;;5004910;28;20045;-76
2022/01/19 01:04:32;;;;;;;56.08;28.75;;;5.70;99.90;;;;;;5008564;28;20173;-76
2022/01/19 01:06:59;;;;;;;57.10;28.35;;;5.70;99.90;;;;;;5011040;28;20624;-76
2022/01/19 01:09:25;;;;;;;57.33;28.15;;;5.70;99.90;;;;;;5009993;28;20054;-76
2022/01/19 01:12:09;;;;;;;54.60;27.23;;;5.70;99.90;;;;;;5007505;28;20053;-76
2022/01/19 01:20:08;;;;;;;52.88;26.23;;;5.60;99.90;;;;;;5014526;28;20050;-76
2022/01/19 01:22:34;;;;;;;53.05;26.63;;;5.60;99.90;;;;;;5008162;28;20054;-76
2022/01/19 01:25:00;;;;;;;46.30;25.50;;;5.60;99.90;;;;;;5009403;28;20060;-76
2022/01/19 01:27:26;;;;;;;48.97;25.30;;;5.60;99.90;;;;;;5008061;28;20540;-76
2022/01/19 01:29:51;;;;;;;49.25;25.50;;;5.50;99.90;;;;;;5009052;28;20034;-76
2022/01/19 01:32:17;;;;;;;48.47;26.90;;;5.40;99.90;;;;;;5008139;28;20115;-76
2022/01/19 01:34:43;;;;;;;53.30;27.83;;;5.40;99.90;;;;;;5007850;28;20046;-76
2022/01/19 01:37:09;;;;;;;52.63;31.35;;;5.40;99.90;;;;;;5005077;28;20045;-75
2022/01/19 01:39:34;;;;;;;64.10;36.17;;;5.40;99.90;;;;;;5007761;28;20086;-76
2022/01/19 01:42:00;;;;;;;74.68;46.00;;;5.30;99.90;;;;;;5010277;28;20049;-76
2022/01/19 01:44:33;;;;;;;65.18;43.67;;;5.30;99.90;;;;;;5008647;28;20050;-75
2022/01/19 01:47:00;;;;;;;60.22;35.30;;;5.20;99.90;;;;;;5009153;28;20077;-76
2022/01/19 01:49:43;;;;;;;58.17;31.27;;;5.20;99.90;;;;;;5006773;28;20048;-76
2022/01/19 01:54:54;;;;;;;58.05;28.15;;;5.20;99.90;;;;;;5006617;28;20046;-76
2022/01/19 01:57:20;;;;;;;52.28;27.85;;;5.20;99.90;;;;;;5008162;28;20144;-76
2022/01/19 01:59:45;;;;;;;52.63;26.73;;;5.20;99.90;;;;;;5003502;28;20124;-76
2022/01/19 02:02:11;;;;;;;54.42;28.23;;;5.10;99.90;;;;;;5008472;28;20137;-76
2022/01/19 02:04:40;;;;;;;55.83;28.92;;;5.10;99.90;;;;;;5007597;28;20053;-75
2022/01/19 02:09:58;;;;;;;54.88;28.70;;;5.00;99.90;;;;;;5006025;28;20565;-76
2022/01/19 02:23:45;;;;;;;55.70;28.60;;;4.90;99.90;;;;;;5008544;28;20042;-75
2022/01/19 02:26:17;;;;;;;61.65;29.88;;;4.90;99.90;;;;;;5007222;28;20069;-76
2022/01/19 02:42:37;;;;;;;65.20;31.88;;;4.60;99.90;;;;;;5005879;28;20054;-76
2022/01/19 02:50:14;;;;;;;60.47;33.78;;;4.50;99.90;;;;;;5007155;28;20125;-76
2022/01/19 02:52:40;;;;;;;73.43;35.38;;;4.40;99.90;;;;;;5005706;28;20121;-75
2022/01/19 02:55:06;;;;;;;83.68;37.80;;;4.40;99.90;;;;;;5008150;28;20092;-76
2022/01/19 02:57:35;;;;;;;111.95;41.70;;;4.40;99.90;;;;;;4997179;28;20414;-76
2022/01/19 03:10:57;;;;;;;139.45;43.00;;;4.20;99.90;;;;;;5012809;28;20050;-75
2022/01/19 03:13:23;;;;;;;165.98;45.58;;;4.10;99.90;;;;;;5007614;28;20053;-75
2022/01/19 03:15:48;;;;;;;137.07;41.63;;;4.20;99.90;;;;;;5003129;28;20133;-76
2022/01/19 03:18:14;;;;;;;113.25;37.65;;;4.10;99.90;;;;;;5008384;28;20117;-76
2022/01/19 03:20:39;;;;;;;108.93;38.20;;;4.10;99.90;;;;;;5005163;28;20512;-76
2022/01/19 03:23:16;;;;;;;92.15;34.97;;;4.00;99.90;;;;;;5006064;28;20111;-76
2022/01/19 03:25:42;;;;;;;75.25;33.05;;;4.00;99.90;;;;;;5008250;28;20601;-76
2022/01/19 03:28:07;;;;;;;76.40;30.25;;;4.00;99.90;;;;;;5008758;28;20049;-76
2022/01/19 03:30:33;;;;;;;61.72;28.55;;;3.90;99.90;;;;;;5009928;28;20050;-76
2022/01/19 03:32:59;;;;;;;56.10;29.27;;;3.90;99.90;;;;;;5012543;28;20451;-75
2022/01/19 03:35:25;;;;;;;91.22;38.10;;;3.90;99.90;;;;;;5007597;28;20099;-76
2022/01/19 03:37:51;;;;;;;63.03;30.45;;;3.80;99.90;;;;;;5009954;28;20048;-76
2022/01/19 03:40:16;;;;;;;60.17;27.77;;;3.80;99.90;;;;;;5011619;28;20485;-76
2022/01/19 03:42:42;;;;;;;58.13;24.58;;;3.70;99.90;;;;;;5009621;28;20080;-75
2022/01/19 03:45:09;;;;;;;50.40;22.30;;;3.80;99.90;;;;;;5009069;28;20131;-76
2022/01/19 03:47:44;;;;;;;61.63;22.40;;;3.70;99.90;;;;;;5010548;28;20038;-75
2022/01/19 03:50:12;;;;;;;59.95;21.48;;;3.70;99.90;;;;;;5010994;28;20061;-75
2022/01/19 03:52:37;;;;;;;;;;;3.60;99.90;;;;;;5010187;28;20038;-76
2022/01/19 03:55:04;;;;;;;111.03;24.23;;;3.60;99.90;;;;;;5010831;28;19928;-76
2022/01/19 03:57:30;;;;;;;75.75;23.17;;;3.60;99.90;;;;;;5009644;28;20042;-75
2022/01/19 03:59:56;;;;;;;51.35;22.50;;;3.60;99.90;;;;;;5009215;28;20142;-76
2022/01/19 04:02:22;;;;;;;55.30;22.70;;;3.50;99.90;;;;;;5011384;28;20080;-76
2022/01/19 04:04:57;;;;;;;59.72;22.83;;;3.50;99.90;;;;;;5008692;28;20404;-75
2022/01/19 04:07:23;;;;;;;49.05;22.75;;;3.50;99.90;;;;;;5011018;28;20081;-76
2022/01/19 04:09:48;;;;;;;57.92;24.98;;;3.50;99.90;;;;;;5008725;28;20073;-76
2022/01/19 04:12:19;;;;;;;43.58;23.77;;;3.50;99.90;;;;;;5011104;28;20042;-76
2022/01/19 04:14:45;;;;;;;41.72;24.45;;;3.50;99.90;;;;;;5011388;28;20066;-76
2022/01/19 04:17:15;;;;;;;38.00;23.88;;;3.50;99.90;;;;;;5009310;28;20793;-76
2022/01/19 04:19:47;;;;;;;58.05;28.10;;;3.50;99.90;;;;;;5009426;28;20511;-76
2022/01/19 04:22:17;;;;;;;48.10;30.45;;;3.40;99.90;;;;;;5010159;28;20061;-76
2022/01/19 04:24:43;;;;;;;51.42;35.08;;;3.40;99.90;;;;;;5008057;28;20042;-76
2022/01/19 04:30:11;;;;;;;64.45;44.25;;;3.40;99.90;;;;;;5007395;28;20074;-76
2022/01/19 04:35:18;;;;;;;;;;;3.30;99.90;;;;;;5009562;28;20076;-76
2022/01/19 04:44:25;;;;;;;59.17;36.80;;;3.20;99.90;;;;;;5008978;28;20073;-76
2022/01/19 04:46:13;;;;;;;60.20;33.30;;;3.20;99.90;;;;;;4999205;28;20042;-76
2022/01/19 05:02:31;;;;;;;62.33;27.13;;;2.90;99.90;;;;;;4998710;28;20511;-75
2022/01/19 05:05:16;;;;;;;72.13;24.13;;;2.90;99.90;;;;;;5009562;28;20459;-75
2022/01/19 05:15:42;;;;;;;65.55;22.20;;;2.70;99.90;;;;;;5006350;28;20672;-76
2022/01/19 05:18:08;;;;;;;100.32;22.48;;;2.60;99.90;;;;;;5008614;28;20088;-76
2022/01/19 05:20:34;;;;;;;153.13;25.05;;;2.60;99.90;;;;;;5009864;28;20141;-76
2022/01/19 05:23:00;;;;;;;124.97;22.58;;;2.60;99.90;;;;;;5006917;28;20124;-76
2022/01/19 05:25:26;;;;;;;51.72;21.80;;;2.50;99.90;;;;;;5008948;28;20038;-76
2022/01/19 05:27:51;;;;;;;65.25;21.15;;;2.50;99.90;;;;;;5007636;28;20083;-76
2022/01/19 05:30:18;;;;;;;54.78;21.33;;;2.40;99.90;;;;;;5009493;28;20037;-75
2022/01/19 05:32:47;;;;;;;83.82;21.80;;;2.40;99.90;;;;;;5009357;28;20505;-76
2022/01/19 05:35:13;;;;;;;23.30;18.95;;;2.40;99.90;;;;;;5009608;28;20373;-76
2022/01/19 05:37:38;;;;;;;30.52;21.48;;;2.40;99.90;;;;;;5008104;28;20052;-76
2022/01/19 05:40:06;;;;;;;26.67;20.15;;;2.40;99.90;;;;;;5008259;28;20049;-76
2022/01/19 05:42:32;;;;;;;27.63;20.88;;;2.40;99.90;;;;;;5006775;28;20096;-76
2022/01/19 05:44:57;;;;;;;32.55;22.20;;;2.40;99.90;;;;;;5008064;28;20155;-77
2022/01/19 05:47:23;;;;;;;27.73;21.20;;;2.40;99.90;;;;;;5008116;28;20045;-76
2022/01/19 05:49:49;;;;;;;35.35;21.10;;;2.40;99.90;;;;;;5007479;28;20054;-76
2022/01/19 05:52:14;;;;;;;31.13;20.45;;;2.40;99.90;;;;;;5008011;28;20037;-76
2022/01/19 05:54:40;;;;;;;27.15;20.70;;;2.30;99.90;;;;;;5009630;28;20050;-76
2022/01/19 05:57:06;;;;;;;26.15;20.77;;;2.30;99.90;;;;;;5008160;28;20120;-76
2022/01/19 05:59:32;;;;;;;31.27;21.13;;;2.30;99.90;;;;;;5007919;28;20042;-76
2022/01/19 06:01:58;;;;;;;29.85;21.23;;;2.30;99.90;;;;;;5008884;28;20096;-76
2022/01/19 06:04:24;;;;;;;28.48;20.58;;;2.30;99.90;;;;;;5007767;28;20111;-76
2022/01/19 06:06:52;;;;;;;29.00;20.75;;;2.30;99.90;;;;;;5006816;28;20033;-76
2022/01/19 06:09:33;;;;;;;32.03;22.73;;;2.30;99.90;;;;;;5008137;28;20061;-76
2022/01/19 06:11:59;;;;;;;33.90;24.15;;;2.30;99.90;;;;;;5005657;28;20225;-76
2022/01/19 06:14:24;;;;;;;43.95;26.95;;;2.40;99.90;;;;;;5008426;28;20052;-76
2022/01/19 06:16:50;;;;;;;44.67;28.40;;;2.40;99.90;;;;;;5005947;28;20042;-76
2022/01/19 06:19:19;;;;;;;53.00;31.48;;;2.40;99.90;;;;;;5007904;28;20096;-76
2022/01/19 06:21:45;;;;;;;52.90;33.28;;;2.50;99.90;;;;;;5007662;28;20056;-76
2022/01/19 06:24:10;;;;;;;56.70;33.95;;;2.50;99.90;;;;;;5006699;28;20042;-76
2022/01/19 06:26:38;;;;;;;64.65;36.63;;;2.60;99.90;;;;;;5007612;28;20041;-76
2022/01/19 06:29:04;;;;;;;63.95;36.03;;;2.60;99.90;;;;;;5007182;28;20050;-76
2022/01/19 06:31:30;;;;;;;60.33;37.45;;;2.70;99.90;;;;;;5007019;28;20046;-76
2022/01/19 06:33:56;;;;;;;65.45;39.80;;;2.80;99.90;;;;;;5008041;28;20042;-76
2022/01/19 06:36:21;;;;;;;62.20;38.05;;;2.90;99.90;;;;;;5007187;28;20046;-76
2022/01/19 06:38:47;;;;;;;62.88;40.08;;;2.90;99.90;;;;;;5005594;28;20056;-76
2022/01/19 06:41:12;;;;;;;70.43;40.42;;;3.00;99.90;;;;;;5010155;28;20485;-76
2022/01/19 06:43:38;;;;;;;69.95;40.50;;;3.00;99.90;;;;;;5007083;28;20034;-76
2022/01/19 06:46:04;;;;;;;70.82;40.17;;;3.10;99.90;;;;;;5007620;28;20100;-77
2022/01/19 06:48:30;;;;;;;74.35;42.00;;;3.10;99.90;;;;;;5006991;28;20049;-80
2022/01/19 06:50:56;;;;;;;79.15;43.58;;;3.20;99.90;;;;;;5013337;28;20053;-77
2022/01/19 06:53:22;;;;;;;78.78;43.80;;;3.30;99.90;;;;;;5002701;28;20054;-76
2022/01/19 06:55:47;;;;;;;76.22;43.13;;;3.30;99.90;;;;;;5008659;28;20299;-77
2022/01/19 06:58:13;;;;;;;58.60;38.28;;;3.30;99.90;;;;;;5005974;28;20033;-77
2022/01/19 07:00:38;;;;;;;54.70;37.35;;;3.40;99.90;;;;;;5005045;28;20045;-77
2022/01/19 07:03:04;;;;;;;51.17;37.28;;;3.40;99.90;;;;;;5005931;28;20033;-76
2022/01/19 07:05:30;;;;;;;49.92;37.00;;;3.50;99.90;;;;;;5007460;28;20041;-76
2022/01/19 07:07:57;;;;;;;42.22;34.72;;;3.50;99.90;;;;;;5004099;28;20038;-76
2022/01/19 07:10:23;;;;;;;40.08;35.53;;;3.60;99.90;;;;;;4998302;28;20050;-76
2022/01/19 07:12:49;;;;;;;41.67;36.13;;;3.60;99.90;;;;;;5004312;28;20191;-76
2022/01/19 07:15:15;;;;;;;43.00;36.80;;;3.60;99.90;;;;;;5008365;28;20069;-76
2022/01/19 07:17:41;;;;;;;43.72;38.17;;;3.60;99.90;;;;;;5007574;28;20127;-76
2022/01/19 07:20:07;;;;;;;45.03;39.40;;;3.60;99.90;;;;;;5004708;28;20053;-76
2022/01/19 07:22:33;;;;;;;43.55;38.88;;;3.70;99.90;;;;;;4999632;28;20058;-76
2022/01/19 07:24:59;;;;;;;42.20;37.78;;;3.70;99.90;;;;;;5002295;28;20061;-76
2022/01/19 07:27:25;;;;;;;43.53;38.97;;;3.70;99.90;;;;;;5004663;28;20493;-76
2022/01/19 07:29:51;;;;;;;45.70;39.38;;;3.80;99.90;;;;;;5006002;28;20050;-76
2022/01/19 07:32:17;;;;;;;44.88;40.03;;;3.80;99.90;;;;;;5007924;28;20077;-76
2022/01/19 07:34:42;;;;;;;47.47;40.95;;;3.80;99.90;;;;;;5001330;28;20054;-77
2022/01/19 07:37:08;;;;;;;46.67;41.78;;;3.80;99.90;;;;;;5001977;28;20046;-76
2022/01/19 07:39:34;;;;;;;46.75;41.78;;;3.80;99.90;;;;;;5003514;28;20046;-76
2022/01/19 07:42:00;;;;;;;47.08;42.15;;;3.80;99.90;;;;;;5000622;28;20049;-75
2022/01/19 07:44:26;;;;;;;45.03;40.42;;;3.90;99.90;;;;;;5006650;28;20046;-76
2022/01/19 07:46:51;;;;;;;47.20;42.28;;;3.90;99.90;;;;;;5010005;28;20125;-76
2022/01/19 07:49:18;;;;;;;45.85;41.03;;;3.90;99.90;;;;;;5001855;28;20050;-76
2022/01/19 07:51:44;;;;;;;46.80;41.90;;;3.90;99.90;;;;;;4998384;28;20056;-77
2022/01/19 07:54:09;;;;;;;46.70;41.78;;;3.90;99.90;;;;;;5002872;28;20042;-76
2022/01/19 07:56:35;;;;;;;46.78;41.58;;;3.90;99.90;;;;;;4988061;28;20046;-74
2022/01/19 07:59:00;;;;;;;49.25;43.90;;;3.90;99.90;;;;;;5002964;28;20054;-77
2022/01/19 08:01:30;;;;;;;47.58;42.47;;;3.90;99.90;;;;;;5003755;28;20128;-72
2022/01/19 08:03:57;;;;;;;48.50;43.45;;;3.90;99.90;;;;;;5001559;28;20050;-72
2022/01/19 08:06:22;;;;;;;47.10;42.13;;;3.90;99.90;;;;;;5003790;28;20046;-72
2022/01/19 08:08:48;;;;;;;48.58;43.20;;;3.90;99.90;;;;;;5006785;28;20049;-73
2022/01/19 08:11:14;;;;;;;48.30;42.47;;;3.90;99.90;;;;;;5004055;28;20050;-73
2022/01/19 08:13:39;;;;;;;48.13;42.92;;;3.90;99.90;;;;;;5010451;28;20516;-72
2022/01/19 08:16:05;;;;;;;48.72;43.53;;;4.00;99.90;;;;;;5010955;28;20429;-73
2022/01/19 08:18:31;;;;;;;47.60;42.50;;;4.00;99.90;;;;;;5009783;28;20048;-73
2022/01/19 08:20:57;;;;;;;49.60;44.30;;;4.00;99.90;;;;;;5013999;28;20112;-74
2022/01/19 08:23:22;;;;;;;47.58;42.70;;;4.00;99.90;;;;;;5011424;28;20096;-73
2022/01/19 08:25:48;;;;;;;49.75;44.45;;;4.10;99.90;;;;;;5011500;28;20042;-74
2022/01/19 08:28:13;;;;;;;50.13;43.92;;;4.10;99.90;;;;;;5012117;28;20133;-73
2022/01/19 08:30:39;;;;;;;51.38;44.40;;;4.10;99.90;;;;;;5006071;28;20077;-72
2022/01/19 08:33:05;;;;;;;48.97;43.78;;;4.10;99.90;;;;;;5009774;28;20069;-74
2022/01/19 08:35:30;;;;;;;51.15;43.72;;;4.20;99.90;;;;;;5010852;28;20092;-73
2022/01/19 08:37:56;;;;;;;50.75;44.28;;;4.20;99.90;;;;;;5010722;28;20050;-72
2022/01/19 08:40:27;;;;;;;52.78;45.40;;;4.20;99.90;;;;;;5013617;28;20032;-71
2022/01/19 08:42:53;;;;;;;49.33;43.95;;;4.20;99.90;;;;;;5010451;28;20456;-74
2022/01/19 08:45:19;;;;;;;52.28;44.08;;;4.30;99.90;;;;;;5010405;28;20045;-75
2022/01/19 08:47:46;;;;;;;52.47;44.00;;;4.30;99.90;;;;;;5008824;28;20451;-74
2022/01/19 08:50:14;;;;;;;56.17;45.22;;;4.30;99.90;;;;;;5008916;28;20042;-74
2022/01/19 08:52:39;;;;;;;52.00;44.33;;;4.30;99.90;;;;;;4999922;28;20105;-75
2022/01/19 08:55:06;;;;;;;55.28;45.17;;;4.30;99.90;;;;;;5004908;28;20050;-74
2022/01/19 08:57:32;;;;;;;58.47;46.92;;;4.30;99.90;;;;;;5008114;28;20049;-74
2022/01/19 08:59:57;;;;;;;62.63;47.75;;;4.30;99.90;;;;;;5009435;28;20041;-73
2022/01/19 09:02:23;;;;;;;64.45;47.78;;;4.30;99.90;;;;;;5011015;28;20046;-74
2022/01/19 09:04:50;;;;;;;59.42;45.42;;;4.30;99.90;;;;;;5009572;28;20050;-75
2022/01/19 09:07:17;;;;;;;59.30;46.33;;;4.30;99.90;;;;;;5008026;28;20176;-72
2022/01/19 09:09:42;;;;;;;56.30;46.35;;;4.30;99.90;;;;;;5008722;28;20046;-72
2022/01/19 09:12:09;;;;;;;62.17;47.72;;;4.30;99.90;;;;;;5010783;28;20404;-75
2022/01/19 09:14:34;;;;;;;63.42;48.47;;;4.30;99.90;;;;;;5009675;28;20042;-75
2022/01/19 09:17:01;;;;;;;64.40;49.53;;;4.30;99.90;;;;;;5007934;28;20042;-72
2022/01/19 09:19:27;;;;;;;62.85;47.55;;;4.30;99.90;;;;;;5011496;28;20058;-74
2022/01/19 09:21:55;;;;;;;62.08;47.42;;;4.30;99.90;;;;;;5009505;28;20456;-73
2022/01/19 09:24:21;;;;;;;61.35;46.85;;;4.30;99.90;;;;;;5007521;28;20461;-74
2022/01/19 09:26:47;;;;;;;63.25;47.95;;;4.30;99.90;;;;;;5009722;28;20065;-75
2022/01/19 09:29:13;;;;;;;60.45;47.40;;;4.30;99.90;;;;;;5014217;28;20052;-74
2022/01/19 09:31:39;;;;;;;62.05;48.05;;;4.30;99.90;;;;;;5009954;28;20048;-73
2022/01/19 09:34:09;;;;;;;66.38;48.97;;;4.40;99.90;;;;;;5009983;28;20050;-73
2022/01/19 09:36:44;;;;;;;62.97;47.80;;;4.40;99.90;;;;;;5009732;28;20058;-72
2022/01/19 09:39:11;;;;;;;67.72;49.45;;;4.40;99.90;;;;;;5005617;28;20077;-75
2022/01/19 09:41:37;;;;;;;72.72;51.25;;;4.40;99.90;;;;;;5008837;28;20057;-73
2022/01/19 09:44:03;;;;;;;67.32;48.70;;;4.40;99.90;;;;;;5010244;28;20045;-74
2022/01/19 09:46:29;;;;;;;65.10;49.07;;;4.40;99.90;;;;;;5009616;28;20050;-72
2022/01/19 09:48:58;;;;;;;69.95;49.20;;;4.40;99.90;;;;;;5008419;28;20044;-73
2022/01/19 09:51:23;;;;;;;69.45;49.05;;;4.40;99.90;;;;;;5010059;28;20049;-72
2022/01/19 09:53:49;;;;;;;68.95;49.63;;;4.40;99.90;;;;;;5019532;28;20390;-72
2022/01/19 09:56:18;;;;;;;70.63;49.88;;;4.50;99.90;;;;;;5013386;28;20070;-74
2022/01/19 09:58:44;;;;;;;69.18;50.45;;;4.50;99.90;;;;;;5008131;28;20096;-72
2022/01/19 10:01:10;;;;;;;74.97;51.38;;;4.50;99.90;;;;;;5008834;28;20050;-73
2022/01/19 10:03:36;;;;;;;72.72;52.30;;;4.50;99.90;;;;;;5011327;28;20050;-72
2022/01/19 10:06:11;;;;;;;69.05;50.92;;;4.50;99.90;;;;;;5007275;28;20080;-72
2022/01/19 10:08:48;;;;;;;74.35;53.40;;;4.60;99.90;;;;;;5007869;28;20088;-72
2022/01/19 10:11:21;;;;;;;74.18;52.63;;;4.60;99.90;;;;;;5010415;28;20037;-74
2022/01/19 10:16:59;;;;;;;82.88;56.33;;;4.60;99.90;;;;;;5011757;28;20511;-72
2022/01/19 10:19:34;;;;;;;81.85;56.45;;;4.60;99.90;;;;;;5013110;28;20054;-74
2022/01/19 10:22:16;;;;;;;86.28;57.63;;;4.60;99.90;;;;;;5008039;28;20054;-73
2022/01/19 10:24:57;;;;;;;88.13;56.85;;;4.60;99.90;;;;;;5007215;28;20042;-73
2022/01/19 10:27:35;;;;;;;86.43;56.90;;;4.60;99.90;;;;;;5011585;28;20089;-73
2022/01/19 10:30:03;;;;;;;86.97;55.78;;;4.70;99.90;;;;;;5008458;28;20037;-74
2022/01/19 10:32:31;;;;;;;84.63;55.65;;;4.70;99.90;;;;;;5018407;28;20443;-74
2022/01/19 10:35:21;;;;;;;93.55;58.38;;;4.70;99.90;;;;;;5006758;28;20112;-79
2022/01/19 10:38:06;;;;;;;92.20;57.72;;;4.80;99.90;;;;;;5011812;28;20049;-75
2022/01/19 10:40:33;;;;;;;97.25;60.15;;;4.80;99.90;;;;;;5005899;28;20128;-74
2022/01/19 10:42:59;;;;;;;92.95;59.15;;;4.80;99.90;;;;;;4996040;28;20052;-74
2022/01/19 10:45:30;;;;;;;96.80;58.78;;;4.80;99.90;;;;;;5009310;28;20493;-75
2022/01/19 10:47:56;;;;;;;99.85;58.50;;;4.80;99.90;;;;;;5007681;28;20101;-74
2022/01/19 10:50:33;;;;;;;107.05;62.72;;;4.80;99.90;;;;;;5005730;28;20057;-78
2022/01/19 10:53:01;;;;;;;104.03;60.58;;;4.70;99.90;;;;;;5017184;28;20094;-74
2022/01/19 10:55:30;;;;;;;99.20;57.70;;;4.80;99.90;;;;;;5005257;28;20115;-74
2022/01/19 10:57:57;;;;;;;107.07;59.58;;;4.70;99.90;;;;;;5006041;28;20125;-74
2022/01/19 11:00:30;;;;;;;104.00;61.90;;;4.70;99.90;;;;;;5008028;28;20046;-73
2022/01/19 11:02:58;;;;;;;107.97;62.88;;;4.70;99.90;;;;;;5005609;28;20046;-75
2022/01/19 11:05:47;;;;;;;106.78;59.40;;;4.70;99.90;;;;;;5005612;28;20116;-74
2022/01/19 11:08:15;;;;;;;112.85;60.67;;;4.70;99.90;;;;;;5007546;28;20038;-73
2022/01/19 11:10:40;;;;;;;108.38;60.90;;;4.70;99.90;;;;;;5013103;28;20049;-74
2022/01/19 11:13:13;;;;;;;110.70;60.55;;;4.70;99.90;;;;;;5008888;28;20084;-74
2022/01/19 11:15:40;;;;;;;106.97;59.42;;;4.70;99.90;;;;;;5006733;28;20053;-73
2022/01/19 11:18:05;;;;;;;103.18;59.83;;;4.70;99.90;;;;;;5006303;28;20057;-75
2022/01/19 11:20:41;;;;;;;107.90;60.53;;;4.60;99.90;;;;;;5007763;28;20050;-74
2022/01/19 11:23:44;;;;;;;106.80;60.22;;;4.70;99.90;;;;;;5008930;28;20505;-73
2022/01/19 11:26:16;;;;;;;96.78;58.15;;;4.70;99.90;;;;;;5007243;28;20038;-72
2022/01/19 11:28:47;;;;;;;96.15;58.15;;;4.60;99.90;;;;;;5008431;28;20076;-79
2022/01/19 11:31:35;;;;;;;102.25;59.05;;;4.70;99.90;;;;;;5008850;28;20048;-72
2022/01/19 11:34:02;;;;;;;97.78;58.55;;;4.70;99.90;;;;;;5003874;28;20045;-74
2022/01/19 11:36:36;;;;;;;94.57;55.45;;;4.70;99.90;;;;;;5006182;28;20135;-74
2022/01/19 11:39:21;;;;;;;101.50;59.55;;;4.70;99.90;;;;;;5003896;28;20046;-74
2022/01/19 11:42:02;;;;;;;101.80;57.70;;;4.70;99.90;;;;;;5002002;28;20104;-75
2022/01/19 11:44:27;;;;;;;101.95;61.17;;;4.70;99.90;;;;;;5008182;28;20734;-75
2022/01/19 11:46:55;;;;;;;99.20;60.05;;;4.70;99.90;;;;;;5009022;28;20084;-76
2022/01/19 11:49:58;;;;;;;99.05;58.97;;;4.70;99.90;;;;;;5000072;28;20046;-76
2022/01/19 11:52:37;;;;;;;97.85;59.15;;;4.70;99.90;;;;;;5005539;28;20057;-76
2022/01/19 11:55:16;;;;;;;99.38;59.30;;;4.70;99.90;;;;;;5008254;28;20466;-77
2022/01/19 11:57:47;;;;;;;104.47;57.67;;;4.70;99.90;;;;;;5002832;28;20065;-77
2022/01/19 12:00:17;;;;;;;103.82;61.03;;;4.70;99.90;;;;;;5011308;28;20092;-73
2022/01/19 12:02:47;;;;;;;102.53;61.28;;;4.70;99.90;;;;;;5008535;28;20045;-73
2022/01/19 12:05:17;;;;;;;97.65;61.20;;;4.70;99.90;;;;;;5010494;28;20046;-72
2022/01/19 12:07:44;;;;;;;104.88;61.40;;;4.70;99.90;;;;;;5014070;28;20141;-76
2022/01/19 12:10:22;;;;;;;101.30;60.00;;;4.70;99.90;;;;;;5007362;28;20128;-72
2022/01/19 12:16:23;;;;;;;99.13;60.92;;;4.70;99.90;;;;;;4987182;28;20118;-73
2022/01/19 12:18:51;;;;;;;101.38;61.70;;;4.60;99.90;;;;;;5002630;28;20112;-74
2022/01/19 12:21:20;;;;;;;93.85;59.85;;;4.70;99.90;;;;;;5008491;28;20056;-73
2022/01/19 12:23:46;;;;;;;99.95;60.25;;;4.70;99.90;;;;;;5005922;28;20104;-73
2022/01/19 12:26:12;;;;;;;98.03;59.85;;;4.60;99.90;;;;;;5018620;28;20042;-74
2022/01/19 12:28:44;;;;;;;98.47;60.90;;;4.60;99.90;;;;;;5009238;28;20525;-74
2022/01/19 12:31:24;;;;;;;98.45;62.50;;;4.60;99.90;;;;;;5009469;28;20041;-74
2022/01/19 12:34:02;;;;;;;97.22;61.28;;;4.60;99.90;;;;;;5019747;28;20053;-75
2022/01/19 12:36:39;;;;;;;93.88;61.10;;;4.60;99.90;;;;;;5012510;28;20108;-77
2022/01/19 12:39:27;;;;;;;95.70;61.50;;;4.60;99.90;;;;;;4990907;28;20042;-77
2022/01/19 12:42:13;;;;;;;104.55;62.83;;;4.60;99.90;;;;;;5009448;28;20054;-75
2022/01/19 12:44:44;;;;;;;103.28;65.63;;;4.70;99.90;;;;;;5004768;28;20125;-72
2022/01/19 12:47:28;;;;;;;95.32;60.47;;;4.70;99.90;;;;;;5008241;28;20536;-72
2022/01/19 12:50:18;;;;;;;97.63;61.78;;;4.70;99.90;;;;;;5008641;28;20050;-74
2022/01/19 12:52:49;;;;;;;89.68;59.45;;;4.70;99.90;;;;;;5008997;28;20064;-75
2022/01/19 12:55:20;;;;;;;92.68;58.63;;;4.70;99.90;;;;;;5008223;28;20103;-74
2022/01/19 12:57:48;;;;;;;89.47;59.00;;;4.70;99.90;;;;;;5009026;28;20049;-74
2022/01/19 13:00:17;;;;;;;88.57;58.38;;;4.70;99.90;;;;;;5010020;28;20037;-72
2022/01/19 13:02:43;;;;;;;90.90;59.90;;;4.80;99.90;;;;;;5009469;28;20057;-73
2022/01/19 13:05:20;;;;;;;91.45;59.50;;;4.80;99.90;;;;;;5006568;28;20034;-75
2022/01/19 13:07:52;;;;;;;95.75;60.20;;;4.80;99.90;;;;;;5005965;28;20100;-74
2022/01/19 13:10:35;;;;;;;93.88;63.28;;;4.80;99.90;;;;;;5007001;28;20054;-74
2022/01/19 13:13:13;;;;;;;91.40;60.47;;;4.80;99.90;;;;;;5002548;28;20048;-73
2022/01/19 13:15:47;;;;;;;93.75;60.78;;;4.80;99.90;;;;;;4990445;28;20477;-75
2022/01/19 13:18:36;;;;;;;93.18;61.10;;;4.80;99.90;;;;;;5008674;28;20057;-73
2022/01/19 13:21:17;;;;;;;95.10;62.22;;;4.80;99.90;;;;;;5005969;28;20085;-72
2022/01/19 13:23:56;;;;;;;91.95;60.72;;;4.80;99.90;;;;;;5006271;28;20084;-73
2022/01/19 13:26:22;;;;;;;90.65;61.08;;;4.80;99.90;;;;;;5009795;28;20085;-75
2022/01/19 13:28:48;;;;;;;99.18;62.97;;;4.80;99.90;;;;;;5010554;28;20053;-74
2022/01/19 13:31:18;;;;;;;94.93;62.75;;;4.80;99.90;;;;;;5010777;28;20140;-76
2022/01/19 13:33:55;;;;;;;89.40;60.85;;;4.80;99.90;;;;;;5009561;28;20049;-74
2022/01/19 13:36:26;;;;;;;98.65;62.28;;;4.80;99.90;;;;;;5010746;28;20053;-75
2022/01/19 13:38:53;;;;;;;98.68;63.25;;;4.80;99.90;;;;;;4992957;28;20042;-74
2022/01/19 13:41:19;;;;;;;94.68;62.47;;;4.80;99.90;;;;;;5001590;28;20050;-73
2022/01/19 13:43:45;;;;;;;99.00;63.17;;;4.80;99.90;;;;;;5008936;28;20073;-77
2022/01/19 13:46:15;;;;;;;93.85;62.42;;;4.80;99.90;;;;;;5009809;28;20484;-76
2022/01/19 13:48:45;;;;;;;99.80;64.00;;;4.80;99.90;;;;;;5007840;28;20137;-76
2022/01/19 13:51:14;;;;;;;97.60;64.38;;;4.80;99.90;;;;;;5007373;28;20052;-74
2022/01/19 13:53:43;;;;;;;95.45;61.72;;;4.80;99.90;;;;;;5006795;28;20140;-73
2022/01/19 13:56:10;;;;;;;92.43;61.88;;;4.80;99.90;;;;;;5010176;28;20042;-74
2022/01/19 13:58:54;;;;;;;95.93;60.22;;;4.90;99.90;;;;;;5006719;28;20045;-74
2022/01/19 14:01:30;;;;;;;98.45;59.72;;;4.90;99.90;;;;;;5005667;28;20050;-73
2022/01/19 14:04:00;;;;;;;94.13;61.08;;;4.90;99.90;;;;;;5010660;28;20747;-75
2022/01/19 14:06:33;;;;;;;95.70;60.22;;;4.90;99.90;;;;;;5011978;28;20057;-74
2022/01/19 14:09:27;;;;;;;98.50;61.38;;;4.90;99.90;;;;;;5007105;28;20050;-72
2022/01/19 14:12:10;;;;;;;94.50;61.15;;;4.90;99.90;;;;;;5008456;28;20080;-73
2022/01/19 14:14:42;;;;;;;85.90;58.85;;;4.90;99.90;;;;;;5007412;28;20054;-73
2022/01/19 14:17:22;;;;;;;90.05;59.42;;;5.00;99.90;;;;;;5008881;28;20137;-74